createdAt,value
2022-09-12T00:02:07.291Z,5.22
2022-09-12T00:04:34.190Z,5.03
2022-09-12T00:07:00.757Z,4.82
2022-09-12T00:09:27.394Z,5.43
2022-09-12T00:11:54.338Z,5.18
2022-09-12T00:14:20.908Z,5.18
2022-09-12T00:16:47.771Z,5.07
2022-09-12T00:19:14.593Z,4.85
2022-09-12T00:21:42.175Z,5.47
2022-09-12T00:24:09.765Z,4.30
2022-09-12T00:26:36.595Z,4.95
2022-09-12T00:29:03.567Z,4.95
2022-09-12T00:31:30.224Z,4.97
2022-09-12T00:34:00.701Z,4.68
2022-09-12T00:36:29.239Z,4.30
2022-09-12T00:38:56.046Z,4.53
2022-09-12T00:41:35.245Z,4.63
2022-09-12T00:44:10.162Z,4.93
2022-09-12T00:46:48.703Z,4.90
2022-09-12T00:49:24.081Z,3.90
2022-09-12T00:51:56.498Z,5.15
2022-09-12T00:54:28.532Z,4.50
2022-09-12T00:57:01.616Z,4.40
2022-09-12T00:59:35.150Z,4.90
2022-09-12T01:02:02.071Z,4.70
2022-09-12T01:04:30.308Z,5.13
2022-09-12T01:06:58.753Z,4.50
2022-09-12T01:09:25.933Z,4.70
2022-09-12T01:11:53.543Z,4.80
2022-09-12T01:14:21.326Z,4.97
2022-09-12T01:16:50.050Z,5.07
2022-09-12T01:19:25.668Z,5.53
2022-09-12T01:22:16.940Z,4.97
2022-09-12T01:27:36.584Z,4.53
2022-09-12T01:30:13.533Z,4.88
2022-09-12T01:32:52.375Z,4.82
2022-09-12T01:35:32.482Z,4.75
2022-09-12T01:38:11.871Z,5.07
2022-09-12T01:41:29.214Z,4.30
2022-09-12T01:44:10.254Z,4.13
2022-09-12T01:46:54.831Z,4.22
2022-09-12T01:49:34.179Z,4.28
2022-09-12T01:52:10.582Z,4.78
2022-09-12T01:54:43.442Z,4.97
2022-09-12T01:57:19.106Z,5.43
2022-09-12T01:59:50.783Z,5.45
2022-09-12T02:02:34.381Z,5.30
2022-09-12T02:05:09.658Z,6.03
2022-09-12T02:07:41.586Z,5.97
2022-09-12T02:10:32.243Z,6.05
2022-09-12T02:13:09.473Z,5.75
2022-09-12T02:15:55.899Z,5.97
2022-09-12T02:18:27.341Z,5.35
2022-09-12T02:20:54.710Z,5.68
2022-09-12T02:23:26.592Z,5.72
2022-09-12T02:25:58.680Z,5.18
2022-09-12T02:28:30.133Z,5.32
2022-09-12T02:31:07.479Z,5.55
2022-09-12T02:34:20.692Z,4.75
2022-09-12T02:37:33.797Z,5.07
2022-09-12T02:40:00.915Z,6.15
2022-09-12T02:42:27.726Z,5.15
2022-09-12T02:44:57.494Z,5.00
2022-09-12T02:47:48.815Z,4.72
2022-09-12T02:52:42.993Z,4.70
2022-09-12T02:55:14.023Z,5.10
2022-09-12T03:00:09.127Z,5.60
2022-09-12T03:02:50.958Z,5.57
2022-09-12T03:05:35.037Z,4.95
2022-09-12T03:08:40.056Z,5.00
2022-09-12T03:11:43.153Z,5.88
2022-09-12T03:14:27.170Z,5.20
2022-09-12T03:17:07.951Z,5.32
2022-09-12T03:19:40.445Z,4.85
2022-09-12T03:22:19.586Z,5.20
2022-09-12T03:25:07.778Z,5.60
2022-09-12T03:27:44.201Z,5.28
2022-09-12T03:30:12.607Z,5.47
2022-09-12T03:32:51.413Z,6.75
2022-09-12T03:35:23.138Z,6.82
2022-09-12T03:37:50.884Z,6.53
2022-09-12T03:40:18.134Z,5.70
2022-09-12T03:42:44.749Z,6.32
2022-09-12T03:47:40.634Z,5.40
2022-09-12T03:50:08.082Z,6.25
2022-09-12T03:52:35.268Z,5.93
2022-09-12T03:55:01.872Z,6.55
2022-09-12T03:57:28.732Z,6.50
2022-09-12T03:59:55.578Z,6.65
2022-09-12T04:02:22.180Z,6.50
2022-09-12T04:04:48.946Z,6.28
2022-09-12T04:07:16.630Z,5.78
2022-09-12T04:09:43.810Z,6.05
2022-09-12T04:12:10.666Z,6.03
2022-09-12T04:14:37.333Z,6.72
2022-09-12T04:17:04.216Z,6.25
2022-09-12T04:19:30.993Z,6.45
2022-09-12T04:21:57.970Z,6.63
2022-09-12T04:24:24.520Z,6.63
2022-09-12T04:26:51.106Z,7.28
2022-09-12T04:29:17.633Z,7.15
2022-09-12T04:31:44.610Z,7.13
2022-09-12T04:34:11.205Z,7.22
2022-09-12T04:36:38.022Z,8.30
2022-09-12T04:39:05.698Z,7.20
2022-09-12T04:41:34.757Z,8.68
2022-09-12T04:44:04.204Z,6.30
2022-09-12T04:46:34.426Z,7.22
2022-09-12T04:49:04.787Z,7.85
2022-09-12T04:51:34.030Z,7.72
2022-09-12T04:54:06.249Z,7.80
2022-09-12T04:56:34.264Z,7.15
2022-09-12T04:59:01.580Z,9.18
2022-09-12T05:01:33.351Z,8.68
2022-09-12T05:04:00.134Z,7.22
2022-09-12T05:06:30.735Z,9.02
2022-09-12T05:08:58.991Z,7.03
2022-09-12T05:11:53.085Z,7.40
2022-09-12T05:14:18.433Z,7.47
2022-09-12T05:16:49.138Z,7.80
2022-09-12T05:19:18.391Z,7.70
2022-09-12T05:21:45.228Z,8.00
2022-09-12T05:24:12.015Z,8.77
2022-09-12T05:26:38.830Z,8.48
2022-09-12T05:29:08.013Z,6.97
2022-09-12T05:31:34.955Z,9.45
2022-09-12T05:34:02.205Z,7.72
2022-09-12T05:36:30.439Z,8.10
2022-09-12T05:38:59.593Z,7.13
2022-09-12T05:41:29.494Z,7.80
2022-09-12T05:43:58.288Z,8.65
2022-09-12T05:46:27.643Z,9.00
2022-09-12T05:48:56.536Z,8.93
2022-09-12T05:51:26.958Z,9.30
2022-09-12T05:53:58.301Z,11.35
2022-09-12T05:56:27.749Z,11.07
2022-09-12T05:59:07.022Z,9.88
2022-09-12T06:01:35.155Z,9.98
2022-09-12T06:04:04.947Z,11.20
2022-09-12T06:06:33.054Z,11.40
2022-09-12T06:09:01.947Z,11.98
2022-09-12T06:11:30.982Z,13.40
2022-09-12T06:13:58.457Z,13.23
2022-09-12T06:16:28.145Z,13.82
2022-09-12T06:18:57.155Z,13.05
2022-09-12T06:21:25.277Z,14.23
2022-09-12T06:23:54.383Z,13.80
2022-09-12T06:26:23.446Z,14.23
2022-09-12T06:28:50.765Z,14.05
2022-09-12T06:31:20.635Z,13.93
2022-09-12T06:33:49.407Z,13.20
2022-09-12T06:36:18.983Z,13.88
2022-09-12T06:38:48.924Z,12.27
2022-09-12T06:41:15.981Z,11.98
2022-09-12T06:43:43.069Z,11.85
2022-09-12T06:46:11.176Z,9.45
2022-09-12T06:48:41.734Z,9.00
2022-09-12T06:53:43.636Z,8.55
2022-09-12T06:56:19.299Z,11.43
2022-09-12T06:58:48.522Z,13.52
2022-09-12T07:01:25.980Z,12.35
2022-09-12T07:03:55.125Z,11.50
2022-09-12T07:06:32.055Z,15.25
2022-09-12T07:09:02.385Z,13.05
2022-09-12T07:11:34.993Z,14.77
2022-09-12T07:14:03.434Z,13.60
2022-09-12T07:16:30.633Z,14.30
2022-09-12T07:19:02.169Z,14.98
2022-09-12T07:21:30.634Z,15.00
2022-09-12T07:23:58.167Z,14.00
2022-09-12T07:26:27.615Z,15.07
2022-09-12T07:29:03.958Z,12.77
2022-09-12T07:31:39.667Z,11.98
2022-09-12T07:34:06.823Z,10.10
2022-09-12T07:36:34.340Z,9.30
2022-09-12T07:39:01.696Z,8.65
2022-09-12T07:41:30.117Z,8.90
2022-09-12T07:43:58.990Z,7.60
2022-09-12T07:46:26.781Z,8.15
2022-09-12T07:48:55.091Z,8.10
2022-09-12T07:51:22.119Z,7.65
2022-09-12T07:53:49.195Z,7.63
2022-09-12T07:56:17.776Z,7.20
2022-09-12T07:58:44.662Z,7.30
2022-09-12T08:01:13.804Z,7.43
2022-09-12T08:03:42.105Z,7.55
2022-09-12T08:06:16.584Z,6.90
2022-09-12T08:08:43.443Z,8.48
2022-09-12T08:11:13.198Z,6.35
2022-09-12T08:13:41.726Z,5.60
2022-09-12T08:16:21.028Z,5.57
2022-09-12T08:18:48.891Z,5.70
2022-09-12T08:21:18.277Z,5.88
2022-09-12T08:23:44.883Z,5.28
2022-09-12T08:26:14.666Z,6.10
2022-09-12T08:28:45.673Z,5.88
2022-09-12T08:31:15.466Z,5.65
2022-09-12T08:33:42.341Z,4.70
2022-09-12T08:36:12.477Z,4.68
2022-09-12T08:38:42.193Z,5.15
2022-09-12T08:41:24.982Z,5.03
2022-09-12T08:43:56.844Z,4.30
2022-09-12T08:46:51.916Z,4.18
2022-09-12T08:49:29.198Z,4.03
2022-09-12T08:51:58.639Z,4.00
2022-09-12T08:54:28.878Z,4.20
2022-09-12T08:57:03.573Z,3.95
2022-09-12T08:59:38.293Z,3.95
2022-09-12T09:02:32.328Z,3.90
2022-09-12T09:05:24.557Z,3.70
2022-09-12T09:08:06.245Z,3.55
2022-09-12T09:10:49.572Z,3.53
2022-09-12T09:13:55.943Z,3.60
2022-09-12T09:16:27.999Z,3.33
2022-09-12T09:18:57.896Z,3.60
2022-09-12T09:21:34.778Z,3.40
2022-09-12T09:24:14.785Z,3.60
2022-09-12T09:26:57.276Z,3.67
2022-09-12T09:29:47.929Z,2.78
2022-09-12T09:32:18.709Z,2.80
2022-09-12T09:37:33.896Z,3.10
2022-09-12T09:40:15.792Z,2.83
2022-09-12T09:43:05.654Z,3.17
2022-09-12T09:45:32.281Z,2.90
2022-09-12T09:48:11.069Z,2.58
2022-09-12T09:50:38.422Z,2.72
2022-09-12T09:53:09.677Z,2.47
2022-09-12T09:55:46.572Z,2.72
2022-09-12T09:58:31.832Z,2.80
2022-09-12T10:01:01.143Z,2.80
2022-09-12T10:03:33.297Z,2.28
2022-09-12T10:06:21.517Z,2.25
2022-09-12T10:08:49.682Z,2.30
2022-09-12T10:11:16.256Z,2.38
2022-09-12T10:14:01.475Z,2.45
2022-09-12T10:16:30.919Z,2.30
2022-09-12T10:19:00.043Z,2.38
2022-09-12T10:21:29.667Z,2.35
2022-09-12T10:24:10.869Z,2.42
2022-09-12T10:26:39.926Z,2.65
2022-09-12T10:29:22.585Z,2.90
2022-09-12T10:31:54.314Z,2.60
2022-09-12T10:34:35.936Z,2.95
2022-09-12T10:37:17.031Z,2.60
2022-09-12T10:39:53.311Z,2.60
2022-09-12T10:42:42.057Z,3.15
2022-09-12T10:45:27.096Z,2.67
2022-09-12T10:47:55.471Z,2.38
2022-09-12T10:50:26.713Z,2.50
2022-09-12T10:52:54.131Z,2.55
2022-09-12T10:55:34.420Z,2.15
2022-09-12T10:58:09.898Z,2.58
2022-09-12T11:00:41.047Z,2.35
2022-09-12T11:03:22.231Z,2.55
2022-09-12T11:05:58.129Z,2.50
2022-09-12T11:08:31.077Z,2.33
2022-09-12T11:11:18.181Z,2.38
2022-09-12T11:14:00.363Z,2.47
2022-09-12T11:16:42.691Z,2.60
2022-09-12T11:19:28.024Z,2.63
2022-09-12T11:21:57.829Z,2.10
2022-09-12T11:24:31.682Z,2.10
2022-09-12T11:27:15.692Z,2.28
2022-09-12T11:29:54.527Z,2.42
2022-09-12T11:32:40.407Z,2.33
2022-09-12T11:35:17.601Z,2.55
2022-09-12T11:38:02.801Z,2.13
2022-09-12T11:40:57.528Z,2.10
2022-09-12T11:43:38.943Z,2.15
2022-09-12T11:46:18.809Z,2.15
2022-09-12T11:49:04.952Z,1.80
2022-09-12T11:51:41.176Z,2.00
2022-09-12T11:54:30.525Z,2.25
2022-09-12T11:57:26.384Z,2.10
2022-09-12T12:00:00.207Z,2.13
2022-09-12T12:02:29.407Z,2.13
2022-09-12T12:05:01.859Z,2.08
2022-09-12T12:07:44.644Z,1.95
2022-09-12T12:10:38.919Z,2.40
2022-09-12T12:13:28.187Z,2.30
2022-09-12T12:15:59.217Z,2.10
2022-09-12T12:18:31.599Z,2.20
2022-09-12T12:21:20.627Z,1.85
2022-09-12T12:24:10.462Z,1.80
2022-09-12T12:26:40.291Z,2.30
2022-09-12T12:29:11.805Z,2.20
2022-09-12T12:32:02.003Z,1.80
2022-09-12T12:34:35.901Z,1.92
2022-09-12T12:37:25.366Z,2.00
2022-09-12T12:40:01.502Z,1.83
2022-09-12T12:42:34.903Z,1.85
2022-09-12T12:45:27.779Z,1.88
2022-09-12T12:47:58.463Z,1.92
2022-09-12T12:50:28.311Z,1.98
2022-09-12T12:52:57.939Z,2.20
2022-09-12T12:55:31.268Z,1.95
2022-09-12T12:58:02.963Z,2.03
2022-09-12T13:00:36.842Z,2.20
2022-09-12T13:03:06.624Z,2.10
2022-09-12T13:05:49.586Z,1.90
2022-09-12T13:08:19.203Z,2.03
2022-09-12T13:10:59.270Z,2.00
2022-09-12T13:13:32.507Z,2.03
2022-09-12T13:15:59.483Z,2.20
2022-09-12T13:18:48.479Z,2.30
2022-09-12T13:21:19.302Z,2.20
2022-09-12T13:24:03.501Z,1.92
2022-09-12T13:26:35.922Z,1.88
2022-09-12T13:29:17.308Z,2.00
2022-09-12T13:31:47.525Z,2.25
2022-09-12T13:34:27.211Z,1.95
2022-09-12T13:37:12.632Z,2.07
2022-09-12T13:39:49.846Z,1.80
2022-09-12T13:42:26.982Z,2.40
2022-09-12T13:45:13.349Z,1.95
2022-09-12T13:47:58.837Z,2.10
2022-09-12T13:50:33.408Z,2.08
2022-09-12T13:53:07.040Z,2.25
2022-09-12T13:55:41.328Z,2.00
2022-09-12T13:58:22.119Z,1.98
2022-09-12T14:01:09.869Z,2.22
2022-09-12T14:04:08.853Z,2.00
2022-09-12T14:06:52.609Z,1.80
2022-09-12T14:09:32.571Z,2.08
2022-09-12T14:11:59.537Z,1.98
2022-09-12T14:14:36.053Z,2.22
2022-09-12T14:17:29.834Z,2.33
2022-09-12T14:19:59.427Z,2.10
2022-09-12T14:22:27.942Z,1.67
2022-09-12T14:24:55.934Z,1.85
2022-09-12T14:27:37.417Z,3.22
2022-09-12T14:30:26.752Z,2.70
2022-09-12T14:33:05.605Z,2.38
2022-09-12T14:35:35.429Z,1.70
2022-09-12T14:38:08.720Z,1.80
2022-09-12T14:40:42.490Z,1.70
2022-09-12T14:43:33.526Z,1.83
2022-09-12T14:46:07.330Z,1.63
2022-09-12T14:48:38.157Z,1.90
2022-09-12T14:51:06.123Z,1.65
2022-09-12T14:53:37.922Z,1.50
2022-09-12T14:56:13.462Z,1.73
2022-09-12T14:58:41.993Z,1.60
2022-09-12T15:01:08.908Z,1.85
2022-09-12T15:03:38.582Z,1.70
2022-09-12T15:06:08.020Z,2.05
2022-09-12T15:08:34.935Z,2.03
2022-09-12T15:11:01.831Z,2.00
2022-09-12T15:13:30.198Z,1.88
2022-09-12T15:15:59.095Z,1.58
2022-09-12T15:18:28.257Z,1.55
2022-09-12T15:20:57.650Z,1.50
2022-09-12T15:23:53.963Z,2.00
2022-09-12T15:26:27.513Z,1.80
2022-09-12T15:28:54.082Z,1.52
2022-09-12T15:31:31.821Z,1.80
2022-09-12T15:34:01.881Z,1.52
2022-09-12T15:36:28.940Z,2.00
2022-09-12T15:38:56.046Z,1.30
2022-09-12T15:41:34.546Z,1.60
2022-09-12T15:44:01.214Z,1.55
2022-09-12T15:46:27.818Z,1.60
2022-09-12T15:48:54.738Z,1.38
2022-09-12T15:51:22.801Z,1.80
2022-09-12T15:53:52.430Z,1.50
2022-09-12T15:56:21.361Z,1.42
2022-09-12T15:58:59.337Z,1.20
2022-09-12T16:01:27.793Z,1.40
2022-09-12T16:04:00.518Z,1.30
2022-09-12T16:06:34.987Z,1.50
2022-09-12T16:09:05.098Z,1.33
2022-09-12T16:11:32.996Z,1.48
2022-09-12T16:13:59.998Z,1.20
2022-09-12T16:16:26.653Z,1.60
2022-09-12T16:18:56.366Z,1.50
2022-09-12T16:21:22.963Z,1.45
2022-09-12T16:23:49.521Z,1.40
2022-09-12T16:26:16.583Z,1.17
2022-09-12T16:28:43.451Z,1.35
2022-09-12T16:31:13.045Z,1.10
2022-09-12T16:33:40.730Z,1.30
2022-09-12T16:36:16.209Z,1.55
2022-09-12T16:38:44.142Z,1.40
2022-09-12T16:41:11.624Z,1.63
2022-09-12T16:43:39.156Z,1.27
2022-09-12T16:46:10.942Z,1.30
2022-09-12T16:48:41.596Z,1.50
2022-09-12T16:51:08.197Z,1.52
2022-09-12T16:53:38.634Z,1.30
2022-09-12T16:56:06.190Z,1.33
2022-09-12T16:58:46.901Z,1.25
2022-09-12T17:01:19.820Z,1.20
2022-09-12T17:03:47.190Z,1.50
2022-09-12T17:06:21.935Z,1.30
2022-09-12T17:08:51.056Z,1.30
2022-09-12T17:11:39.058Z,1.48
2022-09-12T17:14:08.127Z,1.50
2022-09-12T17:16:37.188Z,1.45
2022-09-12T17:19:05.500Z,1.50
2022-09-12T17:21:32.087Z,1.48
2022-09-12T17:23:59.294Z,1.45
2022-09-12T17:26:26.895Z,1.30
2022-09-12T17:28:53.533Z,1.38
2022-09-12T17:31:20.255Z,1.40
2022-09-12T17:33:47.304Z,1.50
2022-09-12T17:36:16.566Z,1.50
2022-09-12T17:38:44.889Z,1.65
2022-09-12T17:41:23.319Z,1.70
2022-09-12T17:43:56.567Z,1.40
2022-09-12T17:46:26.377Z,1.50
2022-09-12T17:48:54.564Z,1.33
2022-09-12T17:51:24.611Z,1.50
2022-09-12T17:54:22.333Z,1.60
2022-09-12T17:56:49.803Z,1.42
2022-09-12T17:59:19.850Z,1.58
2022-09-12T18:02:05.805Z,1.92
2022-09-12T18:04:32.626Z,3.15
2022-09-12T18:07:00.466Z,1.70
2022-09-12T18:09:27.988Z,1.60
2022-09-12T18:11:54.914Z,1.73
2022-09-12T18:14:21.664Z,1.70
2022-09-12T18:16:48.476Z,1.40
2022-09-12T18:19:15.939Z,1.50
2022-09-12T18:21:42.528Z,1.70
2022-09-12T18:24:09.993Z,1.33
2022-09-12T18:26:37.022Z,1.50
2022-09-12T18:29:04.313Z,1.50
2022-09-12T18:31:31.417Z,1.50
2022-09-12T18:34:00.303Z,1.45
2022-09-12T18:36:27.724Z,2.00
2022-09-12T18:38:54.734Z,1.30
2022-09-12T18:41:22.883Z,1.95
2022-09-12T18:43:54.393Z,1.70
2022-09-12T18:46:21.304Z,1.98
2022-09-12T18:48:47.891Z,2.00
2022-09-12T18:51:23.049Z,1.90
2022-09-12T18:53:54.253Z,1.77
2022-09-12T18:56:23.251Z,1.77
2022-09-12T18:58:54.912Z,2.03
2022-09-12T19:01:27.069Z,1.90
2022-09-12T19:03:55.113Z,2.00
2022-09-12T19:06:30.392Z,1.50
2022-09-12T19:08:57.698Z,1.77
2022-09-12T19:11:29.142Z,1.92
2022-09-12T19:13:56.538Z,1.58
2022-09-12T19:16:25.451Z,2.05
2022-09-12T19:18:52.653Z,1.70
2022-09-12T19:21:24.803Z,1.83
2022-09-12T19:23:52.957Z,1.80
2022-09-12T19:26:21.055Z,1.83
2022-09-12T19:28:47.991Z,1.77
2022-09-12T19:31:29.868Z,1.85
2022-09-12T19:34:04.710Z,1.52
2022-09-12T19:36:45.020Z,1.67
2022-09-12T19:39:12.906Z,1.75
2022-09-12T19:41:39.546Z,1.77
2022-09-12T19:44:06.341Z,2.20
2022-09-12T19:46:32.960Z,2.20
2022-09-12T19:48:59.770Z,1.77
2022-09-12T19:51:26.436Z,1.75
2022-09-12T19:53:55.890Z,1.83
2022-09-12T19:56:22.715Z,1.80
2022-09-12T19:58:55.850Z,1.77
2022-09-12T20:01:25.627Z,1.83
2022-09-12T20:03:55.105Z,1.80
2022-09-12T20:06:21.655Z,2.00
2022-09-12T20:08:48.405Z,4.07
2022-09-12T20:11:20.361Z,4.00
2022-09-12T20:13:47.360Z,3.85
2022-09-12T20:16:29.366Z,5.03
2022-09-12T20:18:59.017Z,4.20
2022-09-12T20:21:31.646Z,4.35
2022-09-12T20:24:02.765Z,4.28
2022-09-12T20:26:29.745Z,4.20
2022-09-12T20:28:56.338Z,4.15
2022-09-12T20:31:30.219Z,3.97
2022-09-12T20:33:56.911Z,3.95
2022-09-12T20:36:24.096Z,3.75
2022-09-12T20:39:02.482Z,3.30
2022-09-12T20:41:33.207Z,3.60
2022-09-12T20:43:59.774Z,3.40
2022-09-12T20:46:31.931Z,3.45
2022-09-12T20:48:58.735Z,3.58
2022-09-12T20:51:30.331Z,3.45
2022-09-12T20:54:03.172Z,5.70
2022-09-12T20:56:31.684Z,4.78
2022-09-12T20:58:59.319Z,6.10
2022-09-12T21:01:27.539Z,5.03
2022-09-12T21:03:54.452Z,5.43
2022-09-12T21:06:21.557Z,4.88
2022-09-12T21:08:49.215Z,4.97
2022-09-12T21:11:17.448Z,5.60
2022-09-12T21:13:44.063Z,5.47
2022-09-12T21:16:13.207Z,4.35
2022-09-12T21:18:41.168Z,5.18
2022-09-12T21:21:13.210Z,4.15
2022-09-12T21:23:40.570Z,4.18
2022-09-12T21:26:07.942Z,4.65
2022-09-12T21:28:34.803Z,4.82
2022-09-12T21:31:01.453Z,4.57
2022-09-12T21:33:28.240Z,4.63
2022-09-12T21:35:54.872Z,4.80
2022-09-12T21:38:21.439Z,4.18
2022-09-12T21:40:48.251Z,5.18
2022-09-12T21:43:14.877Z,4.60
2022-09-12T21:45:41.804Z,4.50
2022-09-12T21:48:08.723Z,4.63
2022-09-12T21:50:35.384Z,4.57
2022-09-12T21:53:05.067Z,4.90
2022-09-12T21:55:31.657Z,4.22
2022-09-12T21:57:58.239Z,5.22
2022-09-12T22:00:24.921Z,5.50
2022-09-12T22:02:51.500Z,5.40
2022-09-12T22:05:20.358Z,4.68
2022-09-12T22:07:47.204Z,4.50
2022-09-12T22:10:17.001Z,4.80
2022-09-12T22:12:46.066Z,4.90
2022-09-12T22:15:38.981Z,5.40
2022-09-12T22:18:00.391Z,4.97
2022-09-12T22:20:26.970Z,4.95
2022-09-12T22:23:12.307Z,5.57
2022-09-12T22:25:39.309Z,5.38
2022-09-12T22:28:05.906Z,5.70
2022-09-12T22:30:32.621Z,4.95
2022-09-12T22:32:59.166Z,5.03
2022-09-12T22:35:25.775Z,5.47
2022-09-12T22:37:52.370Z,4.97
2022-09-12T22:40:18.964Z,4.90
2022-09-12T22:42:45.627Z,4.75
2022-09-12T22:45:12.427Z,4.75
2022-09-12T22:47:38.994Z,4.65
2022-09-12T22:50:06.162Z,5.55
2022-09-12T22:52:32.762Z,4.63
2022-09-12T22:54:59.295Z,4.22
2022-09-12T22:57:25.853Z,4.20
2022-09-12T22:59:52.437Z,4.30
2022-09-12T23:02:18.973Z,3.85
2022-09-12T23:04:46.787Z,4.38
2022-09-12T23:07:13.366Z,3.70
2022-09-12T23:09:40.110Z,3.50
2022-09-12T23:12:06.738Z,3.92
2022-09-12T23:14:33.350Z,4.47
2022-09-12T23:16:59.884Z,3.85
2022-09-12T23:19:26.498Z,4.43
2022-09-12T23:21:53.204Z,4.07
2022-09-12T23:24:19.919Z,4.28
2022-09-12T23:26:46.453Z,4.03
2022-09-12T23:29:13.102Z,4.35
2022-09-12T23:31:39.697Z,4.53
2022-09-12T23:34:06.338Z,3.92
2022-09-12T23:36:33.754Z,4.10
2022-09-12T23:39:00.533Z,4.45
2022-09-12T23:41:27.281Z,4.28
2022-09-12T23:43:56.701Z,4.30
2022-09-12T23:46:23.393Z,3.97
2022-09-12T23:48:55.453Z,4.28
2022-09-12T23:51:22.301Z,4.38
2022-09-12T23:53:49.088Z,4.18
2022-09-12T23:56:15.817Z,3.70
2022-09-12T23:58:42.611Z,3.70
